Time;durP1;ratioP1;P1;durP2;ratioP2;P2;SDS_P1;SDS_P2;PMS_P1;PMS_P2;Temp;Humidity;BMP_temperature;BMP_pressure;BME280_temperature;BME280_humidity;BME280_pressure;Samples;Min_cycle;Max_cycle;Signal;HPM_P1;HPM_P2
2021/06/29 00:00:24;;;;;;;4.50;4.10;;;26.40;88.40;;;;;;6216509;23;20416;-90
2021/06/29 00:03:01;;;;;;;4.00;3.70;;;26.40;88.40;;;;;;6216706;23;20409;-90
2021/06/29 00:05:28;;;;;;;4.57;4.20;;;26.40;88.40;;;;;;6216300;23;20441;-90
2021/06/29 00:07:57;;;;;;;3.87;3.67;;;26.40;88.50;;;;;;6217330;23;20435;-90
2021/06/29 00:10:24;;;;;;;4.43;4.03;;;26.40;88.50;;;;;;6216208;23;20411;-90
2021/06/29 00:12:52;;;;;;;4.10;3.80;;;26.40;88.50;;;;;;6216635;23;20731;-90
2021/06/29 00:15:19;;;;;;;4.70;4.30;;;26.40;88.50;;;;;;6216770;23;20870;-90
2021/06/29 00:17:46;;;;;;;5.23;3.90;;;26.40;88.50;;;;;;6204120;23;20494;-90
2021/06/29 00:20:14;;;;;;;5.00;4.50;;;26.40;88.50;;;;;;6216141;23;20449;-90
2021/06/29 00:22:41;;;;;;;4.67;4.30;;;26.40;88.60;;;;;;6216414;23;20514;-90
2021/06/29 00:25:12;;;;;;;4.70;4.30;;;26.40;88.50;;;;;;6217285;23;20445;-90
2021/06/29 00:27:40;;;;;;;4.03;3.73;;;26.40;88.60;;;;;;6216300;23;20721;-90
2021/06/29 00:30:08;;;;;;;4.10;3.80;;;26.40;88.60;;;;;;6216432;23;20468;-90
2021/06/29 00:32:36;;;;;;;4.30;4.00;;;26.40;88.50;;;;;;6216544;23;20486;-90
2021/06/29 00:35:03;;;;;;;4.60;4.20;;;26.40;88.60;;;;;;6216538;23;20747;-90
2021/06/29 00:37:30;;;;;;;4.27;3.97;;;26.40;88.60;;;;;;6216774;23;20406;-90
2021/06/29 00:39:57;;;;;;;4.50;4.20;;;26.40;88.70;;;;;;6216631;23;20493;-90
2021/06/29 00:42:25;;;;;;;4.40;4.00;;;26.40;88.70;;;;;;6216471;23;20434;-89
2021/06/29 00:44:52;;;;;;;3.23;3.03;;;26.40;88.70;;;;;;6216394;23;20437;-90
2021/06/29 00:47:19;;;;;;;3.10;2.90;;;26.40;88.70;;;;;;6216270;23;20405;-90
2021/06/29 00:49:46;;;;;;;4.20;3.90;;;26.40;88.70;;;;;;6216902;23;20409;-90
2021/06/29 00:52:14;;;;;;;4.00;3.60;;;26.40;88.70;;;;;;6215969;23;20492;-90
2021/06/29 00:54:42;;;;;;;3.43;3.23;;;26.40;88.70;;;;;;6216475;23;20774;-90
2021/06/29 00:57:11;;;;;;;4.73;4.20;;;26.40;88.80;;;;;;6216540;23;20430;-90
2021/06/29 00:59:40;;;;;;;3.50;3.30;;;26.40;88.80;;;;;;6216385;23;20480;-90
2021/06/29 01:02:08;;;;;;;3.60;3.40;;;26.40;88.80;;;;;;6216070;23;20501;-90
2021/06/29 01:04:35;;;;;;;3.93;3.73;;;26.40;88.80;;;;;;6216597;23;20451;-90
2021/06/29 01:07:02;;;;;;;4.73;4.37;;;26.40;88.80;;;;;;6216841;23;20491;-90
2021/06/29 01:09:29;;;;;;;4.20;3.90;;;26.40;88.90;;;;;;6216690;23;20441;-90
2021/06/29 01:11:56;;;;;;;3.57;3.37;;;26.40;88.80;;;;;;6217003;23;20497;-90
2021/06/29 01:14:23;;;;;;;4.23;3.83;;;26.40;88.90;;;;;;6217497;23;20413;-90
2021/06/29 01:16:51;;;;;;;4.30;4.00;;;26.40;88.90;;;;;;6217969;23;20488;-91
2021/06/29 01:19:21;;;;;;;3.83;3.53;;;26.40;88.80;;;;;;6216691;23;20437;-90
2021/06/29 01:21:51;;;;;;;3.70;3.50;;;26.40;88.90;;;;;;6205305;23;20406;-91
2021/06/29 01:24:25;;;;;;;4.10;3.80;;;26.40;88.90;;;;;;6218320;23;20445;-91
2021/06/29 01:26:59;;;;;;;4.20;3.83;;;26.40;88.90;;;;;;6218960;23;20445;-90
2021/06/29 01:29:38;;;;;;;4.10;3.80;;;26.40;89.00;;;;;;6216463;23;20939;-90
2021/06/29 01:32:05;;;;;;;3.90;3.57;;;26.30;88.80;;;;;;6215782;23;20400;-90
2021/06/29 01:34:32;;;;;;;3.93;3.73;;;26.30;88.90;;;;;;6216290;23;20485;-90
2021/06/29 01:37:00;;;;;;;4.00;3.70;;;26.30;88.80;;;;;;6216199;23;20430;-90
2021/06/29 01:39:27;;;;;;;4.10;3.70;;;26.30;88.90;;;;;;6216158;23;20402;-90
2021/06/29 01:41:54;;;;;;;3.90;3.60;;;26.40;89.00;;;;;;6215594;23;20436;-90
2021/06/29 01:44:24;;;;;;;4.00;3.60;;;26.30;89.70;;;;;;6215877;23;20519;-90
2021/06/29 01:46:53;;;;;;;4.00;3.70;;;26.30;88.90;;;;;;6215688;23;20413;-90
2021/06/29 01:49:25;;;;;;;3.50;3.20;;;26.30;88.90;;;;;;6216025;23;20411;-91
2021/06/29 01:51:53;;;;;;;4.77;4.37;;;26.30;88.90;;;;;;6215948;23;20868;-90
2021/06/29 01:54:21;;;;;;;3.80;3.50;;;26.30;88.90;;;;;;6216091;23;20446;-91
2021/06/29 01:56:48;;;;;;;3.40;3.10;;;26.30;89.00;;;;;;6215771;23;20402;-90
2021/06/29 01:59:18;;;;;;;3.20;3.00;;;26.30;88.90;;;;;;6215613;23;20405;-90
2021/06/29 02:01:45;;;;;;;3.87;3.67;;;26.30;88.90;;;;;;6215835;23;20421;-90
2021/06/29 02:04:13;;;;;;;3.33;3.13;;;26.30;89.00;;;;;;6217549;23;20821;-90
2021/06/29 02:06:40;;;;;;;3.27;2.97;;;26.30;89.00;;;;;;6190790;23;20397;-90
2021/06/29 02:09:08;;;;;;;3.70;3.50;;;26.30;89.00;;;;;;6217393;23;20485;-90
2021/06/29 02:11:38;;;;;;;3.70;3.40;;;26.30;89.00;;;;;;6217616;23;20405;-90
2021/06/29 02:14:06;;;;;;;4.07;3.63;;;26.30;89.00;;;;;;6217834;23;20405;-90
2021/06/29 02:16:33;;;;;;;4.27;3.57;;;26.30;89.00;;;;;;6217903;23;20448;-90
2021/06/29 02:19:00;;;;;;;3.80;3.53;;;26.30;89.00;;;;;;6217706;23;20992;-91
2021/06/29 02:21:27;;;;;;;3.27;3.07;;;26.30;89.00;;;;;;6217855;23;20496;-90
2021/06/29 02:23:54;;;;;;;3.40;3.20;;;26.30;89.00;;;;;;6218304;23;20517;-91
2021/06/29 02:26:21;;;;;;;3.33;3.13;;;26.30;89.00;;;;;;6222289;22;20414;-90
2021/06/29 02:28:49;;;;;;;3.20;3.00;;;26.30;89.00;;;;;;6220041;23;20937;-91
2021/06/29 02:31:16;;;;;;;3.70;3.40;;;26.40;89.10;;;;;;6217871;23;20500;-90
2021/06/29 02:33:43;;;;;;;3.93;3.63;;;26.30;89.00;;;;;;6217556;23;20410;-91
2021/06/29 02:36:10;;;;;;;3.80;3.50;;;26.30;89.00;;;;;;6217758;23;20505;-90
2021/06/29 02:38:37;;;;;;;3.57;3.37;;;26.30;89.00;;;;;;6224311;23;20424;-90
2021/06/29 02:41:04;;;;;;;3.67;3.47;;;26.30;88.90;;;;;;6217630;23;20433;-91
2021/06/29 02:43:31;;;;;;;3.70;3.50;;;26.30;89.00;;;;;;6217864;23;20899;-90
2021/06/29 02:45:59;;;;;;;3.97;3.73;;;26.30;89.80;;;;;;6217099;23;20438;-90
2021/06/29 02:48:26;;;;;;;3.33;3.13;;;26.30;89.00;;;;;;6222920;22;20413;-90
2021/06/29 02:50:53;;;;;;;3.00;2.80;;;26.30;89.00;;;;;;6218107;23;20440;-90
2021/06/29 02:53:20;;;;;;;3.57;3.37;;;26.30;89.10;;;;;;6217827;23;20884;-90
2021/06/29 02:55:47;;;;;;;3.50;3.30;;;26.30;89.10;;;;;;6216935;23;20424;-90
2021/06/29 02:58:14;;;;;;;3.77;3.47;;;26.30;89.10;;;;;;6217129;23;20496;-91
2021/06/29 03:00:41;;;;;;;3.27;3.07;;;26.30;89.00;;;;;;6217015;23;20453;-91
2021/06/29 03:03:10;;;;;;;3.73;3.53;;;26.30;89.10;;;;;;6217368;23;20914;-90
2021/06/29 03:05:37;;;;;;;3.60;3.40;;;26.30;89.20;;;;;;6217615;23;20445;-91
2021/06/29 03:08:05;;;;;;;3.20;3.00;;;26.30;89.10;;;;;;6217040;23;20886;-91
2021/06/29 03:10:31;;;;;;;3.57;3.37;;;26.30;89.10;;;;;;6217150;23;20406;-91
2021/06/29 03:12:58;;;;;;;3.40;3.20;;;26.30;89.00;;;;;;6217352;23;20502;-91
2021/06/29 03:15:26;;;;;;;3.47;3.27;;;26.30;89.10;;;;;;6216636;23;20402;-91
2021/06/29 03:17:53;;;;;;;2.90;2.70;;;26.30;89.20;;;;;;6216717;23;20417;-91
2021/06/29 03:20:21;;;;;;;3.13;2.93;;;26.30;89.10;;;;;;6217551;23;20445;-91
2021/06/29 03:22:48;;;;;;;3.37;3.17;;;26.30;89.10;;;;;;6217883;23;20726;-90
2021/06/29 03:25:15;;;;;;;3.30;3.10;;;26.30;89.00;;;;;;6218155;23;20963;-90
2021/06/29 03:27:42;;;;;;;3.20;3.00;;;26.30;89.10;;;;;;6217748;23;20418;-91
2021/06/29 03:30:10;;;;;;;3.40;3.10;;;26.30;89.10;;;;;;6216783;23;20439;-91
2021/06/29 03:32:37;;;;;;;3.83;3.17;;;26.30;90.00;;;;;;6216976;23;20486;-91
2021/06/29 03:35:07;;;;;;;3.20;3.00;;;26.30;89.10;;;;;;6217080;23;20476;-91
2021/06/29 03:37:38;;;;;;;2.90;2.70;;;26.30;89.10;;;;;;6217498;23;20768;-91
2021/06/29 03:40:06;;;;;;;3.30;3.00;;;26.30;89.00;;;;;;6217121;23;20409;-90
2021/06/29 03:42:33;;;;;;;3.27;3.07;;;26.30;89.00;;;;;;6216936;23;20721;-91
2021/06/29 03:45:00;;;;;;;2.53;2.43;;;26.30;89.00;;;;;;6216583;23;20444;-91
2021/06/29 03:47:27;;;;;;;3.47;3.17;;;26.30;89.00;;;;;;6216794;23;20410;-91
2021/06/29 03:49:54;;;;;;;3.13;2.93;;;26.30;89.00;;;;;;6216821;23;20499;-90
2021/06/29 03:52:21;;;;;;;3.43;3.23;;;26.30;89.00;;;;;;6216775;23;20789;-91
2021/06/29 03:54:49;;;;;;;2.80;2.70;;;26.40;89.10;;;;;;6217542;23;20396;-91
2021/06/29 03:57:16;;;;;;;3.33;3.13;;;26.30;89.00;;;;;;6217059;23;20408;-91
2021/06/29 03:59:42;;;;;;;3.10;2.90;;;26.30;89.00;;;;;;6217284;23;20505;-91
2021/06/29 04:02:09;;;;;;;2.90;2.70;;;26.30;88.90;;;;;;6216786;23;20870;-91
2021/06/29 04:04:36;;;;;;;2.90;2.73;;;26.30;88.90;;;;;;6216959;23;20523;-90
2021/06/29 04:07:06;;;;;;;3.37;3.17;;;26.30;88.90;;;;;;6216746;23;20414;-90
2021/06/29 04:09:33;;;;;;;3.43;3.23;;;26.30;88.90;;;;;;6217372;23;20414;-91
2021/06/29 04:12:02;;;;;;;3.37;3.17;;;26.30;88.90;;;;;;6216998;23;20453;-91
2021/06/29 04:14:28;;;;;;;2.90;2.70;;;26.30;88.90;;;;;;6216772;23;20489;-91
2021/06/29 04:16:55;;;;;;;3.37;3.17;;;26.30;88.90;;;;;;6217057;23;20481;-91
2021/06/29 04:19:22;;;;;;;2.80;2.60;;;26.30;88.90;;;;;;6216745;23;20468;-90
2021/06/29 04:21:49;;;;;;;3.70;3.50;;;26.30;88.90;;;;;;6216859;23;20401;-90
2021/06/29 04:24:16;;;;;;;3.23;3.03;;;26.30;88.90;;;;;;6217506;23;20470;-89
2021/06/29 04:26:43;;;;;;;4.50;4.10;;;26.30;88.90;;;;;;6217219;23;20449;-89
2021/06/29 04:29:11;;;;;;;5.90;5.40;;;26.30;88.80;;;;;;6216495;23;20432;-88
2021/06/29 04:31:38;;;;;;;6.20;5.80;;;26.30;89.10;;;;;;6216274;23;20461;-90
2021/06/29 04:34:05;;;;;;;6.67;6.20;;;26.30;90.20;;;;;;6216557;23;20415;-88
2021/06/29 04:36:32;;;;;;;5.30;5.00;;;26.20;89.90;;;;;;6216866;23;20800;-89
2021/06/29 04:38:58;;;;;;;7.87;7.27;;;26.20;90.10;;;;;;6217434;23;20937;-88
2021/06/29 04:41:25;;;;;;;6.80;6.20;;;26.20;90.10;;;;;;6217394;23;20497;-89
2021/06/29 04:43:52;;;;;;;7.43;5.73;;;26.20;90.20;;;;;;6218717;23;20448;-88
2021/06/29 04:46:21;;;;;;;6.70;6.10;;;26.20;90.30;;;;;;6218090;23;21004;-90
2021/06/29 04:48:47;;;;;;;8.93;6.13;;;26.10;90.40;;;;;;6217169;23;20790;-89
2021/06/29 04:51:14;;;;;;;6.43;5.83;;;26.10;90.50;;;;;;6217419;23;20449;-88
2021/06/29 04:53:41;;;;;;;6.40;5.90;;;26.10;90.60;;;;;;6217083;23;20416;-89
2021/06/29 04:56:16;;;;;;;7.23;5.70;;;26.10;90.80;;;;;;6217137;23;20404;-89
2021/06/29 04:58:44;;;;;;;5.93;5.43;;;26.10;90.80;;;;;;6217193;23;20424;-90
2021/06/29 05:01:11;;;;;;;5.97;5.53;;;26.10;90.80;;;;;;6216656;23;20733;-89
2021/06/29 05:03:39;;;;;;;6.20;5.73;;;26.10;90.90;;;;;;6216881;23;20412;-89
2021/06/29 05:06:06;;;;;;;5.87;5.37;;;26.10;91.00;;;;;;6218010;23;20449;-89
2021/06/29 05:08:33;;;;;;;5.70;5.20;;;26.00;91.00;;;;;;6218287;23;20435;-88
2021/06/29 05:11:00;;;;;;;6.23;5.10;;;26.10;91.00;;;;;;6216090;23;20434;-89
2021/06/29 05:13:27;;;;;;;5.53;5.13;;;26.10;90.90;;;;;;6216177;23;20780;-90
2021/06/29 05:15:54;;;;;;;5.87;5.37;;;26.10;90.90;;;;;;6216444;23;20409;-89
2021/06/29 05:18:21;;;;;;;5.70;5.27;;;26.00;91.00;;;;;;6216105;23;20409;-89
2021/06/29 05:20:49;;;;;;;5.00;4.60;;;26.10;91.00;;;;;;6215664;23;20433;-89
2021/06/29 05:23:16;;;;;;;5.70;5.20;;;26.10;91.40;;;;;;6216271;23;20492;-88
2021/06/29 05:25:43;;;;;;;5.00;4.70;;;26.10;91.10;;;;;;6216577;23;20438;-88
2021/06/29 05:28:10;;;;;;;7.13;4.83;;;26.00;91.10;;;;;;6215836;23;20452;-89
2021/06/29 05:30:37;;;;;;;4.37;3.97;;;26.10;91.10;;;;;;6216051;23;20511;-89
2021/06/29 05:33:04;;;;;;;7.27;4.30;;;26.10;91.10;;;;;;6215869;23;20431;-88
2021/06/29 05:35:30;;;;;;;4.43;4.03;;;26.10;91.10;;;;;;6216096;23;20492;-89
2021/06/29 05:38:00;;;;;;;3.97;3.67;;;26.10;91.20;;;;;;6216191;23;20405;-89
2021/06/29 05:40:27;;;;;;;4.13;3.83;;;26.10;91.20;;;;;;6218050;23;20485;-89
2021/06/29 05:42:54;;;;;;;5.30;4.57;;;26.20;91.20;;;;;;6217963;23;20744;-88
2021/06/29 05:45:21;;;;;;;5.47;4.47;;;26.20;91.10;;;;;;6217928;23;20535;-90
2021/06/29 05:47:48;;;;;;;6.50;4.70;;;26.10;90.70;;;;;;6217881;23;20412;-92
2021/06/29 05:50:15;;;;;;;5.70;5.20;;;26.20;90.60;;;;;;6218368;23;20405;-93
2021/06/29 05:52:42;;;;;;;5.80;5.40;;;26.20;90.60;;;;;;6218603;23;20497;-92
2021/06/29 05:55:12;;;;;;;5.13;4.77;;;26.20;90.70;;;;;;6218809;23;20747;-92
2021/06/29 05:57:39;;;;;;;5.40;4.90;;;26.20;90.70;;;;;;6218566;23;20473;-93
2021/06/29 06:00:08;;;;;;;4.67;4.33;;;26.30;90.70;;;;;;6221512;22;20434;-92
2021/06/29 06:02:35;;;;;;;5.30;4.13;;;26.20;90.70;;;;;;6218540;23;20394;-91
2021/06/29 06:05:02;;;;;;;4.90;4.50;;;26.20;90.60;;;;;;6217702;23;20821;-92
2021/06/29 06:07:29;;;;;;;5.27;4.80;;;26.20;90.60;;;;;;6217961;23;20405;-92
2021/06/29 06:09:56;;;;;;;4.50;4.20;;;26.20;90.60;;;;;;6217672;23;20512;-92
2021/06/29 06:12:25;;;;;;;4.63;4.20;;;26.30;90.60;;;;;;6218120;23;20403;-92
2021/06/29 06:14:52;;;;;;;4.20;3.80;;;26.30;90.60;;;;;;6217845;23;20405;-92
2021/06/29 06:17:19;;;;;;;3.80;3.50;;;26.20;90.50;;;;;;6218071;23;20437;-92
2021/06/29 06:19:46;;;;;;;4.00;3.57;;;26.20;90.40;;;;;;6217535;23;20484;-92
2021/06/29 06:22:13;;;;;;;4.57;4.17;;;26.30;90.40;;;;;;6217647;23;20970;-92
2021/06/29 06:24:40;;;;;;;3.97;3.67;;;26.30;90.30;;;;;;6217991;23;20441;-92
2021/06/29 06:27:12;;;;;;;3.47;3.23;;;26.30;90.30;;;;;;6217896;23;20469;-92
2021/06/29 06:29:40;;;;;;;3.43;3.17;;;26.30;90.20;;;;;;6216978;23;20465;-91
2021/06/29 06:32:07;;;;;;;3.50;3.20;;;26.30;90.10;;;;;;6217805;23;20410;-92
2021/06/29 06:34:34;;;;;;;3.37;3.07;;;26.30;90.00;;;;;;6217789;23;20456;-91
2021/06/29 06:37:01;;;;;;;3.23;3.00;;;26.30;90.00;;;;;;6217634;23;20402;-92
2021/06/29 06:39:28;;;;;;;3.70;3.00;;;26.30;89.90;;;;;;6217543;23;20493;-91
2021/06/29 06:41:57;;;;;;;3.90;3.50;;;26.30;89.80;;;;;;6217372;23;20919;-91
2021/06/29 06:44:24;;;;;;;3.07;2.87;;;26.30;89.80;;;;;;6218926;23;20436;-92
2021/06/29 06:46:53;;;;;;;4.13;3.10;;;26.30;89.80;;;;;;6191264;23;20942;-91
2021/06/29 06:49:20;;;;;;;3.30;3.10;;;26.30;90.30;;;;;;6217424;23;20416;-91
2021/06/29 06:51:47;;;;;;;2.80;2.60;;;26.40;89.80;;;;;;6219560;22;20504;-91
2021/06/29 06:54:13;;;;;;;3.30;3.10;;;26.30;89.90;;;;;;6217634;23;20444;-92
2021/06/29 06:56:40;;;;;;;3.20;3.00;;;26.30;89.90;;;;;;6218177;23;20445;-91
2021/06/29 06:59:07;;;;;;;3.23;3.03;;;26.30;89.70;;;;;;6217202;23;20416;-91
2021/06/29 07:01:41;;;;;;;3.57;3.27;;;26.30;89.50;;;;;;6224146;23;20785;-93
2021/06/29 07:04:09;;;;;;;2.87;2.67;;;26.40;89.60;;;;;;6218308;23;20869;-92
2021/06/29 07:06:36;;;;;;;4.17;3.87;;;26.30;89.50;;;;;;6218560;23;20524;-95
2021/06/29 07:09:06;;;;;;;3.50;3.20;;;26.40;89.80;;;;;;6220979;23;20437;-93
2021/06/29 07:11:33;;;;;;;3.73;3.50;;;26.30;89.70;;;;;;6218556;23;20413;-93
2021/06/29 07:14:00;;;;;;;6.43;3.70;;;26.40;89.60;;;;;;6218194;23;20437;-94
2021/06/29 07:16:30;;;;;;;3.93;3.57;;;26.40;89.20;;;;;;6218201;23;20488;-94
2021/06/29 07:18:57;;;;;;;4.33;3.80;;;26.40;88.90;;;;;;6218506;23;20489;-96
2021/06/29 07:21:27;;;;;;;3.83;3.53;;;26.40;88.60;;;;;;6219148;23;20406;-93
2021/06/29 07:23:54;;;;;;;3.90;3.70;;;26.40;89.30;;;;;;6217414;23;20409;-93
2021/06/29 07:26:21;;;;;;;4.80;4.40;;;26.40;88.50;;;;;;6217652;23;20476;-94
2021/06/29 07:28:49;;;;;;;4.53;4.23;;;26.40;89.00;;;;;;6217496;23;20497;-95
2021/06/29 07:31:17;;;;;;;4.63;4.33;;;26.40;89.00;;;;;;6218988;23;20437;-94
2021/06/29 07:33:45;;;;;;;5.10;4.70;;;26.40;88.70;;;;;;6217918;23;20501;-95
2021/06/29 07:36:14;;;;;;;4.63;4.33;;;26.40;88.50;;;;;;6221873;23;20501;-96
2021/06/29 07:38:47;;;;;;;4.57;4.27;;;26.40;88.40;;;;;;6204362;23;20402;-96
2021/06/29 07:41:17;;;;;;;7.23;6.73;;;26.40;88.40;;;;;;6223353;23;20402;-94
2021/06/29 07:43:44;;;;;;;5.60;5.20;;;26.40;88.90;;;;;;6193163;23;20405;-94
2021/06/29 07:46:11;;;;;;;5.70;5.27;;;26.50;89.00;;;;;;6217276;23;20476;-94
2021/06/29 07:48:39;;;;;;;6.13;5.53;;;26.40;88.70;;;;;;6202013;23;20550;-96
2021/06/29 07:51:14;;;;;;;6.10;5.60;;;26.40;88.50;;;;;;6190346;23;20406;-96
2021/06/29 07:53:42;;;;;;;6.03;5.63;;;26.40;88.30;;;;;;6202142;23;20398;-96
2021/06/29 07:56:14;;;;;;;5.77;5.40;;;26.40;88.20;;;;;;6188462;23;20913;-93
2021/06/29 07:58:41;;;;;;;6.23;5.73;;;26.40;88.20;;;;;;6187908;23;20399;-94
2021/06/29 08:01:09;;;;;;;6.27;5.77;;;26.40;88.20;;;;;;6188004;23;20439;-95
2021/06/29 08:03:35;;;;;;;6.30;5.77;;;26.40;88.10;;;;;;6197736;23;20441;-93
2021/06/29 08:06:03;;;;;;;4.87;4.57;;;26.40;88.30;;;;;;6189986;23;20515;-96
2021/06/29 08:08:30;;;;;;;4.73;4.40;;;26.40;88.60;;;;;;6187129;23;20441;-93
2021/06/29 08:10:59;;;;;;;4.60;4.20;;;26.40;89.00;;;;;;6187606;23;20411;-95
2021/06/29 08:13:26;;;;;;;4.93;4.63;;;26.40;88.90;;;;;;6187066;23;20471;-92
2021/06/29 08:15:53;;;;;;;4.53;4.23;;;26.40;88.70;;;;;;6187088;23;20415;-91
2021/06/29 08:18:23;;;;;;;4.73;4.33;;;26.40;88.60;;;;;;6186981;23;20445;-93
2021/06/29 08:20:50;;;;;;;4.77;4.43;;;26.40;88.50;;;;;;6188138;23;20417;-92
2021/06/29 08:23:17;;;;;;;4.70;4.37;;;26.40;88.20;;;;;;6187889;23;20410;-95
2021/06/29 08:25:44;;;;;;;4.43;4.07;;;26.40;88.00;;;;;;6187637;23;20481;-95
2021/06/29 08:28:13;;;;;;;4.27;3.93;;;26.50;87.90;;;;;;6188224;23;20407;-90
2021/06/29 08:30:41;;;;;;;5.27;4.80;;;26.50;87.80;;;;;;6186047;23;20934;-88
2021/06/29 08:33:11;;;;;;;3.90;3.63;;;26.50;88.10;;;;;;6186564;23;20933;-94
2021/06/29 08:35:38;;;;;;;4.20;3.90;;;26.50;88.00;;;;;;6186850;23;20440;-92
2021/06/29 08:38:05;;;;;;;4.53;4.13;;;26.50;88.00;;;;;;6186627;23;20493;-90
2021/06/29 08:40:35;;;;;;;4.10;3.80;;;26.50;88.00;;;;;;6186404;23;20403;-91
2021/06/29 08:43:02;;;;;;;4.20;3.80;;;26.50;88.10;;;;;;6191079;23;20968;-92
2021/06/29 08:45:31;;;;;;;4.17;3.87;;;26.50;88.00;;;;;;6188763;23;20407;-96
2021/06/29 08:47:58;;;;;;;4.00;3.60;;;26.50;87.90;;;;;;6187182;23;20461;-94
2021/06/29 08:50:30;;;;;;;4.40;4.10;;;26.50;88.00;;;;;;6187695;23;20423;-95
2021/06/29 08:52:58;;;;;;;4.47;4.13;;;26.60;89.00;;;;;;6187076;23;20403;-92
2021/06/29 08:58:41;;;;;;;4.60;4.30;;;26.60;88.20;;;;;;6204614;23;20387;-96
2021/06/29 09:01:09;;;;;;;4.30;4.00;;;26.60;88.50;;;;;;6201538;23;20465;-90
2021/06/29 09:03:37;;;;;;;5.17;4.77;;;26.60;88.20;;;;;;6198522;23;20387;-94
2021/06/29 09:06:05;;;;;;;4.40;4.00;;;26.60;88.10;;;;;;6196752;23;20435;-94
2021/06/29 09:08:38;;;;;;;4.50;4.20;;;26.60;88.00;;;;;;6190227;23;20435;-95
2021/06/29 09:11:10;;;;;;;4.53;4.23;;;26.70;88.10;;;;;;6188058;23;20398;-94
2021/06/29 09:13:37;;;;;;;4.40;4.10;;;26.60;88.00;;;;;;6188975;23;20413;-91
2021/06/29 09:16:05;;;;;;;5.27;4.97;;;26.60;88.00;;;;;;6186207;23;20413;-95
2021/06/29 09:18:35;;;;;;;6.10;5.57;;;26.60;88.40;;;;;;6186911;23;20404;-89
2021/06/29 09:21:04;;;;;;;5.70;5.30;;;26.60;88.50;;;;;;6203903;23;20435;-91
2021/06/29 09:23:33;;;;;;;6.47;6.03;;;26.60;88.70;;;;;;6202599;23;20470;-93
2021/06/29 09:26:01;;;;;;;6.90;6.27;;;26.60;88.60;;;;;;6208389;23;20538;-92
2021/06/29 09:28:32;;;;;;;7.30;6.80;;;26.60;88.80;;;;;;6191234;23;20485;-93
2021/06/29 09:31:03;;;;;;;6.80;6.33;;;26.70;88.70;;;;;;6189985;23;20461;-95
2021/06/29 09:33:32;;;;;;;7.33;6.83;;;26.70;88.70;;;;;;6189835;23;20431;-95
2021/06/29 09:36:03;;;;;;;6.67;6.27;;;26.70;88.70;;;;;;6193435;23;20418;-96
2021/06/29 09:38:32;;;;;;;7.03;6.37;;;26.70;88.50;;;;;;6163973;23;20482;-92
2021/06/29 09:41:03;;;;;;;6.40;6.00;;;26.70;88.40;;;;;;6186794;23;20482;-94
2021/06/29 09:43:34;;;;;;;8.77;7.87;;;26.70;88.20;;;;;;6189365;23;20387;-95
2021/06/29 09:46:02;;;;;;;8.57;7.87;;;26.70;88.20;;;;;;6188197;23;20874;-92
2021/06/29 09:48:35;;;;;;;8.20;7.60;;;26.70;88.20;;;;;;6186222;23;20445;-92
2021/06/29 09:51:08;;;;;;;8.70;8.00;;;26.70;88.40;;;;;;6186610;23;20934;-93
2021/06/29 09:53:39;;;;;;;8.67;7.97;;;26.70;88.60;;;;;;6186961;23;20709;-93
2021/06/29 09:56:12;;;;;;;9.70;8.80;;;26.70;88.70;;;;;;6187220;23;20778;-93
2021/06/29 09:58:40;;;;;;;9.60;8.87;;;26.70;88.80;;;;;;6186780;23;20500;-95
2021/06/29 10:01:08;;;;;;;9.60;8.90;;;26.70;88.70;;;;;;6187048;23;20505;-93
2021/06/29 10:03:36;;;;;;;9.13;8.47;;;26.70;88.80;;;;;;6188231;23;20406;-94
2021/06/29 10:06:14;;;;;;;9.30;8.60;;;26.70;88.70;;;;;;6186511;23;20902;-93
2021/06/29 10:08:43;;;;;;;10.77;9.97;;;26.70;88.70;;;;;;6186974;23;20428;-96
2021/06/29 10:14:02;;;;;;;10.30;9.50;;;26.70;88.60;;;;;;6194621;23;20395;-93
2021/06/29 10:16:32;;;;;;;11.97;10.73;;;26.70;88.50;;;;;;6194811;23;20449;-93
2021/06/29 10:19:34;;;;;;;12.40;9.83;;;26.70;88.50;;;;;;6187245;23;20449;-94
2021/06/29 10:22:05;;;;;;;10.60;9.90;;;26.70;88.20;;;;;;6191298;23;20436;-93
2021/06/29 10:24:34;;;;;;;11.90;10.90;;;26.70;88.20;;;;;;6187100;23;20438;-93
2021/06/29 10:27:03;;;;;;;10.77;9.73;;;26.70;88.60;;;;;;6188290;23;20525;-94
2021/06/29 10:29:31;;;;;;;12.20;11.30;;;26.70;88.70;;;;;;6187801;23;20967;-93
2021/06/29 10:32:03;;;;;;;10.23;9.43;;;26.70;88.70;;;;;;6194015;23;20490;-93
2021/06/29 10:34:31;;;;;;;10.40;9.60;;;26.70;88.50;;;;;;6188971;23;20414;-93
2021/06/29 10:36:58;;;;;;;10.70;9.77;;;26.70;88.40;;;;;;6187809;23;20442;-93
2021/06/29 10:39:30;;;;;;;9.77;9.10;;;26.80;88.40;;;;;;6193093;23;20410;-94
2021/06/29 10:42:01;;;;;;;9.60;8.90;;;26.70;88.30;;;;;;6188623;23;20407;-93
2021/06/29 10:44:30;;;;;;;9.70;9.00;;;26.70;88.30;;;;;;6188208;23;20399;-93
2021/06/29 10:46:57;;;;;;;10.10;9.40;;;26.80;88.70;;;;;;6198474;23;20494;-93
2021/06/29 10:49:42;;;;;;;9.60;8.90;;;26.70;88.60;;;;;;6188583;23;20446;-92
2021/06/29 10:52:37;;;;;;;9.63;8.97;;;26.80;88.50;;;;;;6194164;23;20401;-94
2021/06/29 10:55:07;;;;;;;8.03;7.40;;;26.80;88.20;;;;;;6196671;23;20418;-91
2021/06/29 10:57:42;;;;;;;7.73;7.20;;;26.70;87.90;;;;;;6189290;23;20477;-92
2021/06/29 11:03:09;;;;;;;8.93;8.27;;;26.70;88.00;;;;;;6190505;23;20732;-92
2021/06/29 11:05:37;;;;;;;7.53;6.90;;;26.70;88.00;;;;;;6187962;23;20446;-91
2021/06/29 11:08:09;;;;;;;7.60;7.10;;;26.70;87.80;;;;;;6187835;23;20470;-92
2021/06/29 11:10:39;;;;;;;8.13;7.53;;;26.70;87.80;;;;;;6187566;23;20453;-92
2021/06/29 11:13:07;;;;;;;9.07;8.47;;;26.70;87.80;;;;;;6187417;23;20493;-91
2021/06/29 11:15:46;;;;;;;8.27;7.67;;;26.80;88.20;;;;;;6187125;23;20442;-92
2021/06/29 11:18:14;;;;;;;7.93;7.43;;;26.70;88.30;;;;;;6188392;23;20469;-92
2021/06/29 11:20:43;;;;;;;7.97;7.43;;;26.70;88.60;;;;;;6187259;23;20477;-92
2021/06/29 11:23:15;;;;;;;7.57;7.17;;;26.70;88.70;;;;;;6187779;23;20502;-92
2021/06/29 11:25:46;;;;;;;8.40;7.77;;;26.90;88.60;;;;;;6216477;23;20426;-92
2021/06/29 11:28:16;;;;;;;6.80;6.40;;;26.80;88.60;;;;;;6217663;23;20430;-92
2021/06/29 11:31:09;;;;;;;8.03;7.53;;;26.80;88.60;;;;;;6217801;23;20435;-92
2021/06/29 11:33:58;;;;;;;7.50;7.00;;;26.80;88.60;;;;;;6196834;23;20460;-92
2021/06/29 11:36:43;;;;;;;7.47;6.97;;;26.80;88.80;;;;;;6217439;23;20414;-93
2021/06/29 11:39:29;;;;;;;6.77;6.37;;;26.80;88.30;;;;;;6217420;23;20433;-92
2021/06/29 11:41:58;;;;;;;8.37;7.83;;;26.80;88.50;;;;;;6218002;23;20394;-92
2021/06/29 11:44:54;;;;;;;8.57;7.97;;;26.80;88.70;;;;;;6217717;23;20889;-92
2021/06/29 11:47:23;;;;;;;6.53;6.07;;;26.80;88.50;;;;;;6217206;23;20465;-92
2021/06/29 11:49:53;;;;;;;7.00;6.57;;;26.80;88.20;;;;;;6216871;23;20435;-92
2021/06/29 11:52:26;;;;;;;6.30;5.80;;;26.80;88.20;;;;;;6217194;23;20550;-92
2021/06/29 11:57:42;;;;;;;6.70;6.30;;;26.80;88.70;;;;;;6217515;23;20483;-93
2021/06/29 12:00:31;;;;;;;7.13;6.63;;;26.80;87.80;;;;;;6218132;23;20437;-93
2021/06/29 12:03:00;;;;;;;8.37;7.67;;;26.80;87.70;;;;;;6213162;23;20888;-92
2021/06/29 12:05:34;;;;;;;8.10;7.50;;;26.80;88.20;;;;;;6223068;23;20422;-94
2021/06/29 12:08:04;;;;;;;7.63;6.40;;;26.80;88.20;;;;;;6227292;23;20536;-94
2021/06/29 12:10:33;;;;;;;8.33;7.63;;;26.80;88.10;;;;;;6217806;23;20410;-94
2021/06/29 12:13:04;;;;;;;8.23;7.63;;;26.80;88.00;;;;;;6217860;23;20447;-93
2021/06/29 12:15:33;;;;;;;9.37;8.60;;;26.80;88.00;;;;;;6217559;23;20497;-92
2021/06/29 12:18:02;;;;;;;7.83;7.33;;;26.80;88.10;;;;;;6217361;23;20401;-92
2021/06/29 12:20:31;;;;;;;7.90;7.00;;;26.90;88.50;;;;;;6217279;23;20739;-92
2021/06/29 12:22:59;;;;;;;8.87;8.17;;;26.90;88.40;;;;;;6216627;23;20489;-90
2021/06/29 12:25:29;;;;;;;7.93;7.23;;;26.90;88.30;;;;;;6216907;23;20416;-94
2021/06/29 12:27:58;;;;;;;9.47;8.70;;;26.90;88.10;;;;;;6217892;23;20788;-93
2021/06/29 12:30:35;;;;;;;9.53;7.60;;;26.90;87.90;;;;;;6218078;23;20509;-94
2021/06/29 12:33:20;;;;;;;7.60;7.07;;;26.80;87.80;;;;;;6217920;23;20413;-94
2021/06/29 12:35:49;;;;;;;7.97;7.17;;;26.80;87.90;;;;;;6219274;23;20402;-93
2021/06/29 12:38:17;;;;;;;8.03;7.53;;;26.80;87.80;;;;;;6218476;23;20530;-93
2021/06/29 12:40:46;;;;;;;7.47;6.97;;;26.80;87.90;;;;;;6218555;23;20429;-94
2021/06/29 12:43:32;;;;;;;7.10;6.60;;;26.80;88.00;;;;;;6217749;23;20901;-94
2021/06/29 12:46:16;;;;;;;8.00;7.40;;;26.80;87.80;;;;;;6217176;23;20406;-96
2021/06/29 12:49:04;;;;;;;8.43;7.80;;;26.80;87.60;;;;;;6217999;23;20465;-95
2021/06/29 12:51:33;;;;;;;7.70;7.00;;;26.80;87.60;;;;;;6218479;23;20414;-96
2021/06/29 12:54:02;;;;;;;8.27;7.57;;;26.70;87.70;;;;;;6219983;23;20493;-96
2021/06/29 12:56:32;;;;;;;7.30;6.80;;;26.80;87.70;;;;;;6205091;22;20451;-96
2021/06/29 12:58:59;;;;;;;7.73;7.20;;;26.70;87.60;;;;;;6191004;23;20462;-94
2021/06/29 13:01:28;;;;;;;6.93;6.43;;;26.70;87.60;;;;;;6192761;23;20411;-96
2021/06/29 13:03:57;;;;;;;8.40;7.70;;;26.80;87.70;;;;;;6190173;23;20407;-96
2021/06/29 13:06:25;;;;;;;7.20;6.70;;;26.80;87.70;;;;;;6192946;23;20437;-96